LGAVLGPA

Guest
Details From LGAV - Athens Intl Airport Elefterios Venizel
To LGPA - Paros
Flight Number -
Tags Generated
Created
Modified
Stats Distance 79 nm / 147 km
Max Altitude 0 ft / 0 m
Waypoints 2
Social Downloads 1
Likes 0
Share VATSIM

Download

Looking for another format? Having issues loading an existing format? Contact us
Advertisement - Login to hide

Notes

Generated

Route

LGAV LGPA

ID Type Via Altitude Latitude Longitude Leg Dist Tot Dist Heading (true) Name
O LGAV APT - 0 ft / 0 m 37.92101˚ 23.91920˚ - 0 nm - -
O LGPA APT - 0 ft / 0 m 37.01980˚ 25.13330˚ 79 nm 79 nm 133° / 133° Paros

Altitude Profile

Advertisement - Login to hide

LGAV

Details ICAO LGAV (ATH)
Name Athens Intl Airport Elefterios Venizel
Region Greece
Timezone Europe/Athens (UTC+3.0)
Stats Elevation 308 ft / 94 m (AMSL)
Location 37.936357° 23.944470°
Runways 2
Magnetic Variation 4.527° E

METAR

LGAV 221950Z 36005KT CAVOK 19/13 Q1018 NOSIG

Decode

TAF

TAF TAF LGAV 221700Z 2218/2318 03013KT 9999 FEW030 TEMPO 2306/2314 03013G23KT

Decode

Departure Runways

ID Width Length Bearing (true) Bearing (mag) Surface Threshold Offset Overrun Length
03L 148 ft / 45 m 12,474 ft / 3,802 m 36.51° 31.98° Asphalt 984 ft / 300 m 393 ft / 120 m
03R 148 ft / 45 m 13,131 ft / 4,002 m 36.52° 31.99° Asphalt 984 ft / 300 m 393 ft / 120 m
21L 148 ft / 45 m 13,131 ft / 4,002 m 216.54° 212.01° Asphalt 984 ft / 300 m 393 ft / 120 m
21R 148 ft / 45 m 12,474 ft / 3,802 m 216.53° 212.00° Asphalt 984 ft / 300 m 393 ft / 120 m

LGPA

Details ICAO LGPA (PAS)
Name Paros
Region Greece
Timezone Europe/Athens (UTC+3.0)
Stats Elevation 121 ft / 37 m (AMSL)
Location 37.016602° 25.133297°
Runways 1
Magnetic Variation 4.576° E

METAR

LGPA 221950Z AUTO 01007KT //// // ////// 20/14 Q1016 RE//

Decode

TAF

Not found

Destination Runways

ID Width Length Bearing (true) Bearing (mag) Surface Threshold Offset Overrun Length
18 82 ft / 25 m 2,330 ft / 710 m 180.00° 175.42° Asphalt 0 ft / 0 m 0 ft / 0 m
36 82 ft / 25 m 2,330 ft / 710 m 0.00° 355.42° Asphalt 0 ft / 0 m 0 ft / 0 m

Popular Alternatives